Wade, Mississippi
Current Conditions -  °F | °C
As of 3:53 AM on Sunday 23 Nov 2014 (Local Time) from KPQL Reporting Station
Light Rain Light Rain  
Wind Chill: 64°   Ceiling: 400
Heat Index: 64°   Visibility: 4mi
Dew Point: 63°   Wind: 7mph
Humidity: 96%   Direction: 50°NE
Pressure: 29.8"   Gusts: NA
Location:  30.3649°N, 88.5432°W
Report Text: KPQL 230953Z AUTO 05006KT 4SM -RA BR OVC004 18/17 A2980 RMK AO2 RAB32 SLP091 P0000 T01780172 TSNO
Loading
Personal Weather Stations






























Interactive Weather Map New forecast layout! Learn more

10-Day Weather Forecast

Advertisements
Track Severe Weather on mobile